createdAt,value
2022-08-20T00:02:57.578Z,99912.53
2022-08-20T00:08:03.940Z,99907.16
2022-08-20T00:13:10.671Z,99907.63
2022-08-20T00:18:16.060Z,99911.13
2022-08-20T00:23:20.553Z,99914.59
2022-08-20T00:28:23.423Z,99904.03
2022-08-20T00:33:26.474Z,99901.44
2022-08-20T00:38:31.538Z,99900.81
2022-08-20T00:43:37.981Z,99905.13
2022-08-20T00:48:44.045Z,99914.97
2022-08-20T00:53:48.223Z,99912.06
2022-08-20T00:58:51.899Z,99918.66
2022-08-20T01:03:57.059Z,99928.06
2022-08-20T01:09:02.248Z,99921.13
2022-08-20T01:14:22.806Z,99933.47
2022-08-20T01:19:30.352Z,99926.69
2022-08-20T01:24:38.043Z,99930.56
2022-08-20T01:29:42.149Z,99931.44
2022-08-20T01:34:44.862Z,99917.91
2022-08-20T01:39:47.561Z,99917.28
2022-08-20T01:44:52.893Z,99933.28
2022-08-20T01:49:58.571Z,99921.81
2022-08-20T01:55:02.671Z,99928.16
2022-08-20T02:00:14.609Z,99927.38
2022-08-20T02:05:24.321Z,99933.72
2022-08-20T02:10:33.765Z,99937.19
2022-08-20T02:15:42.896Z,99931.44
2022-08-20T02:20:46.318Z,99940.00
2022-08-20T02:25:49.193Z,99934.22
2022-08-20T02:30:55.300Z,99941.59
2022-08-20T02:35:58.265Z,99935.47
2022-08-20T02:41:00.962Z,99940.16
2022-08-20T02:46:05.959Z,99938.53
2022-08-20T02:51:09.448Z,99936.75
2022-08-20T02:56:12.813Z,99933.03
2022-08-20T03:01:18.435Z,99929.59
2022-08-20T03:06:22.045Z,99938.19
2022-08-20T03:11:24.811Z,99932.28
2022-08-20T03:16:29.008Z,99943.97
2022-08-20T03:21:32.302Z,99939.31
2022-08-20T03:26:35.178Z,99931.69
2022-08-20T03:31:39.520Z,99925.16
2022-08-20T03:36:42.756Z,99939.31
2022-08-20T03:41:45.486Z,99930.28
2022-08-20T03:46:49.775Z,99939.47
2022-08-20T03:51:57.583Z,99935.78
2022-08-20T03:57:02.872Z,99934.09
2022-08-20T04:02:08.084Z,99942.06
2022-08-20T04:07:12.229Z,99937.50
2022-08-20T04:12:14.940Z,99946.69
2022-08-20T04:17:22.839Z,99952.84
2022-08-20T04:22:25.530Z,99956.81
2022-08-20T04:27:28.744Z,99947.00
2022-08-20T04:32:34.328Z,99947.22
2022-08-20T04:37:40.309Z,99954.34
2022-08-20T04:42:43.551Z,99964.34
2022-08-20T04:47:47.758Z,99965.75
2022-08-20T04:52:50.511Z,99968.41
2022-08-20T04:57:55.493Z,99977.44
2022-08-20T05:02:59.767Z,99977.69
2022-08-20T05:08:03.260Z,99983.44
2022-08-20T05:13:06.280Z,99979.31
2022-08-20T05:18:10.536Z,100003.88
2022-08-20T05:23:14.672Z,99991.75
2022-08-20T05:28:19.683Z,99997.50
2022-08-20T05:33:25.284Z,99990.75
2022-08-20T05:38:30.961Z,99999.53
2022-08-20T05:43:33.961Z,99996.06
2022-08-20T05:48:38.347Z,99998.16
2022-08-20T05:53:41.604Z,100002.25
2022-08-20T05:58:44.373Z,100004.31
2022-08-20T06:04:05.833Z,100008.63
2022-08-20T06:09:08.793Z,100008.38
2022-08-20T06:14:11.940Z,100014.09
2022-08-20T06:19:16.401Z,100009.00
2022-08-20T06:24:27.911Z,100010.03
2022-08-20T06:29:33.210Z,100019.00
2022-08-20T06:34:37.417Z,100019.00
2022-08-20T06:39:40.208Z,100026.59
2022-08-20T06:44:43.060Z,100036.66
2022-08-20T06:49:47.519Z,100040.31
2022-08-20T06:54:50.247Z,100048.53
2022-08-20T06:59:55.784Z,100050.53
2022-08-20T07:05:00.166Z,100045.84
2022-08-20T07:10:03.453Z,100052.78
2022-08-20T07:15:08.917Z,100049.72
2022-08-20T07:20:16.139Z,100054.81
2022-08-20T07:25:21.081Z,100051.13
2022-08-20T07:30:56.114Z,100053.78
2022-08-20T07:36:03.955Z,100067.69
2022-08-20T07:41:08.406Z,100062.13
2022-08-20T07:46:11.188Z,100078.53
2022-08-20T07:51:17.655Z,100078.91
2022-08-20T07:56:22.738Z,100090.22
2022-08-20T08:01:30.285Z,100094.94
2022-08-20T08:06:34.689Z,100097.59
2022-08-20T08:11:39.753Z,100099.63
2022-08-20T08:16:45.586Z,100094.25
2022-08-20T08:21:49.797Z,100092.41
2022-08-20T08:26:52.787Z,100093.63
2022-08-20T08:31:55.538Z,100110.41
2022-08-20T08:37:02.067Z,100113.88
2022-08-20T08:42:20.503Z,100107.28
2022-08-20T08:47:29.467Z,100110.53
2022-08-20T08:52:37.047Z,100112.31
2022-08-20T08:57:41.000Z,100111.03
2022-08-20T09:02:55.034Z,100110.78
2022-08-20T09:08:00.224Z,100116.94
2022-08-20T09:13:04.110Z,100116.84
2022-08-20T09:18:06.921Z,100116.00
2022-08-20T09:23:11.004Z,100113.97
2022-08-20T09:28:13.699Z,100112.09
2022-08-20T09:33:17.202Z,100111.88
2022-08-20T09:38:21.298Z,100120.13
2022-08-20T09:43:23.994Z,100118.91
2022-08-20T09:48:31.858Z,100117.88
2022-08-20T09:53:36.534Z,100116.06
2022-08-20T09:58:46.874Z,100109.75
2022-08-20T10:03:51.060Z,100107.28
2022-08-20T10:08:55.279Z,100113.00
2022-08-20T10:13:58.000Z,100112.59
2022-08-20T10:19:01.534Z,100109.75
2022-08-20T10:24:06.066Z,100110.63
2022-08-20T10:29:08.858Z,100111.84
2022-08-20T10:34:11.638Z,100113.88
2022-08-20T10:39:15.874Z,100110.19
2022-08-20T10:44:18.674Z,100115.53
2022-08-20T10:49:21.491Z,100112.22
2022-08-20T10:54:25.697Z,100125.91
2022-08-20T10:59:28.417Z,100130.84
2022-08-20T11:04:31.158Z,100129.75
2022-08-20T11:09:35.292Z,100123.16
2022-08-20T11:14:38.200Z,100128.66
2022-08-20T11:19:42.138Z,100126.53
2022-08-20T11:24:47.134Z,100135.16
2022-08-20T11:29:50.141Z,100129.56
2022-08-20T11:34:53.101Z,100139.56
2022-08-20T11:39:57.220Z,100144.56
2022-08-20T11:45:00.024Z,100144.50
2022-08-20T11:50:04.642Z,100144.06
2022-08-20T11:55:11.486Z,100145.66
2022-08-20T12:00:18.163Z,100141.69
2022-08-20T12:05:21.506Z,100150.66
2022-08-20T12:10:26.856Z,100160.69
2022-08-20T12:15:29.855Z,100157.84
2022-08-20T12:20:32.558Z,100157.84
2022-08-20T12:25:36.712Z,100160.75
2022-08-20T12:30:39.635Z,100164.75
2022-08-20T12:35:42.545Z,100161.00
2022-08-20T12:40:46.647Z,100161.75
2022-08-20T12:45:49.399Z,100164.81
2022-08-20T12:50:52.826Z,100166.50
2022-08-20T12:55:56.984Z,100160.56
2022-08-20T13:00:59.808Z,100162.63
2022-08-20T13:06:03.001Z,100160.63
2022-08-20T13:11:07.464Z,100163.06
2022-08-20T13:16:10.231Z,100162.63
2022-08-20T13:21:12.999Z,100165.09
2022-08-20T13:26:17.181Z,100161.59
2022-08-20T13:31:20.595Z,100163.47
2022-08-20T13:36:24.705Z,100153.81
2022-08-20T13:41:29.001Z,100154.25
2022-08-20T13:46:32.018Z,100157.94
2022-08-20T13:51:34.741Z,100150.97
2022-08-20T13:56:38.869Z,100152.00
2022-08-20T14:01:41.724Z,100149.78
2022-08-20T14:06:44.418Z,100150.66
2022-08-20T14:11:48.519Z,100156.88
2022-08-20T14:16:51.305Z,100149.22
2022-08-20T14:21:54.078Z,100143.84
2022-08-20T14:26:58.117Z,100142.66
2022-08-20T14:32:00.874Z,100147.75
2022-08-20T14:37:12.982Z,100150.81
2022-08-20T14:42:17.435Z,100145.03
2022-08-20T14:47:22.344Z,100144.84
2022-08-20T14:52:28.239Z,100147.63
2022-08-20T14:57:33.218Z,100139.84
2022-08-20T15:02:36.080Z,100141.13
2022-08-20T15:07:40.655Z,100133.69
2022-08-20T15:12:45.016Z,100137.34
2022-08-20T15:17:50.903Z,100133.66
2022-08-20T15:22:54.142Z,100128.44
2022-08-20T15:28:01.591Z,100141.59
2022-08-20T15:33:04.826Z,100136.25
2022-08-20T15:38:07.860Z,100144.47
2022-08-20T15:43:11.960Z,100132.38
2022-08-20T15:48:17.600Z,100145.13
2022-08-20T15:53:25.809Z,100136.09
2022-08-20T15:58:36.354Z,100135.13
2022-08-20T16:03:56.574Z,100139.84
2022-08-20T16:09:08.418Z,100144.59
2022-08-20T16:14:16.563Z,100148.97
2022-08-20T16:19:24.202Z,100146.97
2022-08-20T16:24:27.022Z,100150.88
2022-08-20T16:29:40.444Z,100168.16
2022-08-20T16:34:46.295Z,100162.63
2022-08-20T16:40:08.401Z,100171.31
2022-08-20T16:45:15.172Z,100178.06
2022-08-20T16:50:20.989Z,100187.75
2022-08-20T16:55:24.853Z,100188.41
2022-08-20T17:00:35.252Z,100188.66
2022-08-20T17:05:45.976Z,100193.16
2022-08-20T17:10:58.768Z,100190.91
2022-08-20T17:16:06.301Z,100186.66
2022-08-20T17:21:16.661Z,100190.19
2022-08-20T17:26:22.812Z,100190.88
2022-08-20T17:31:38.602Z,100190.50
2022-08-20T17:36:49.531Z,100196.25
2022-08-20T17:41:56.028Z,100201.41
2022-08-20T17:47:02.395Z,100198.28
2022-08-20T17:52:07.571Z,100198.50
2022-08-20T17:57:14.415Z,100199.75
2022-08-20T18:02:18.770Z,100187.66
2022-08-20T18:07:25.798Z,100205.72
2022-08-20T18:12:34.888Z,100206.53
2022-08-20T18:17:58.981Z,100203.88
2022-08-20T18:23:05.101Z,100207.34
2022-08-20T18:28:12.231Z,100209.84
2022-08-20T18:33:27.434Z,100203.53
2022-08-20T18:38:31.916Z,100215.22
2022-08-20T18:43:35.750Z,100207.22
2022-08-20T18:48:51.541Z,100210.50
2022-08-20T18:53:54.503Z,100211.97
2022-08-20T18:59:01.986Z,100220.19
2022-08-20T19:04:18.023Z,100213.00
2022-08-20T19:09:28.792Z,100210.97
2022-08-20T19:14:59.232Z,100211.59
2022-08-20T19:20:06.256Z,100215.13
2022-08-20T19:25:10.630Z,100213.25
2022-08-20T19:30:13.668Z,100227.63
2022-08-20T19:35:18.979Z,100225.38
2022-08-20T19:40:28.204Z,100221.28
2022-08-20T19:45:33.286Z,100218.63
2022-08-20T19:50:43.289Z,100218.84
2022-08-20T19:55:46.596Z,100212.50
2022-08-20T20:00:51.533Z,100226.63
2022-08-20T20:05:59.466Z,100223.34
2022-08-20T20:11:03.153Z,100228.66
2022-08-20T20:16:06.228Z,100229.09
2022-08-20T20:21:21.984Z,100223.75
2022-08-20T20:26:25.558Z,100225.00
2022-08-20T20:31:30.418Z,100225.00
2022-08-20T20:36:38.837Z,100227.06
2022-08-20T20:41:51.718Z,100225.63
2022-08-20T20:46:57.935Z,100224.19
2022-08-20T20:52:03.946Z,100216.41
2022-08-20T20:57:08.739Z,100230.34
2022-08-20T21:02:11.513Z,100225.03
2022-08-20T21:07:17.560Z,100230.53
2022-08-20T21:12:21.670Z,100219.88
2022-08-20T21:17:24.441Z,100217.84
2022-08-20T21:22:28.828Z,100219.09
2022-08-20T21:27:32.104Z,100227.72
2022-08-20T21:32:34.899Z,100229.53
2022-08-20T21:37:39.629Z,100222.16
2022-08-20T21:42:42.426Z,100218.47
2022-08-20T21:47:48.968Z,100232.41
2022-08-20T21:52:55.426Z,100235.50
2022-08-20T21:58:02.979Z,100233.63
2022-08-20T22:03:06.246Z,100227.50
2022-08-20T22:08:10.990Z,100222.56
2022-08-20T22:13:13.939Z,100218.72
2022-08-20T22:18:17.160Z,100217.25
2022-08-20T22:23:21.589Z,100222.19
2022-08-20T22:28:25.235Z,100224.22
2022-08-20T22:33:28.015Z,100211.91
2022-08-20T22:38:32.418Z,100213.19
2022-08-20T22:43:35.276Z,100202.72
2022-08-20T22:48:47.869Z,100198.44
2022-08-20T22:53:54.638Z,100195.38
2022-08-20T22:58:59.130Z,100205.41
2022-08-20T23:04:07.150Z,100203.78
2022-08-20T23:09:12.808Z,100204.59
2022-08-20T23:14:16.034Z,100194.53
2022-08-20T23:19:21.568Z,100192.94
2022-08-20T23:24:25.923Z,100193.97
2022-08-20T23:29:28.958Z,100192.94
2022-08-20T23:34:31.789Z,100198.28
2022-08-20T23:39:36.151Z,100205.19
2022-08-20T23:44:38.935Z,100198.44
2022-08-20T23:49:41.689Z,100197.06
2022-08-20T23:54:45.806Z,100200.53
2022-08-20T23:59:48.586Z,100193.78
